Time;durP1;ratioP1;P1;durP2;ratioP2;P2;SDS_P1;SDS_P2;PMS_P1;PMS_P2;Temp;Humidity;BMP_temperature;BMP_pressure;BME280_temperature;BME280_humidity;BME280_pressure;Samples;Min_cycle;Max_cycle;Signal;HPM_P1;HPM_P2
2021/01/02 00:00:13;;;;;;;16.35;14.65;;;;;;;8.18;64.30;102097.34;1741855;82;21176;-46
2021/01/02 00:02:52;;;;;;;17.50;14.28;;;;;;;8.16;64.32;102105.08;1738821;82;21192;-46
2021/01/02 00:05:20;;;;;;;18.65;15.18;;;;;;;8.15;64.25;102108.54;1738111;82;21184;-46
2021/01/02 00:08:18;;;;;;;17.48;14.70;;;;;;;8.14;64.39;102114.56;1734219;82;21188;-47
2021/01/02 00:11:25;;;;;;;15.63;13.25;;;;;;;8.13;64.35;102118.03;1738989;82;21581;-46
2021/01/02 00:14:02;;;;;;;16.25;13.83;;;;;;;8.13;64.37;102125.80;1737905;82;21117;-47
2021/01/02 00:16:57;;;;;;;16.85;14.53;;;;;;;8.12;64.41;102129.23;1690974;84;21171;-47
2021/01/02 00:19:49;;;;;;;17.25;14.83;;;;;;;8.10;64.43;102136.13;1693620;84;21271;-46
2021/01/02 00:22:48;;;;;;;17.40;15.60;;;;;;;8.12;64.36;102138.31;1756469;79;28648;-46
2021/01/02 00:25:17;;;;;;;17.65;15.03;;;;;;;8.11;64.52;102146.95;1689803;84;21217;-47
2021/01/02 00:28:10;;;;;;;17.77;15.08;;;;;;;8.15;64.28;102154.33;1677210;85;21209;-46
2021/01/02 00:30:52;;;;;;;17.27;14.68;;;;;;;8.12;64.16;102152.56;1674741;84;21198;-46
2021/01/02 00:33:30;;;;;;;;;;;;;;;8.10;64.29;102158.58;1678347;85;21194;-46
2021/01/02 00:36:13;;;;;;;18.60;16.32;;;;;;;8.10;64.31;102164.64;1771525;79;22639;-46
2021/01/02 00:38:41;;;;;;;18.30;15.15;;;;;;;8.02;64.41;102168.87;1738070;82;21168;-46
2021/01/02 00:41:09;;;;;;;18.82;14.85;;;;;;;8.00;64.50;102162.81;1734065;82;21148;-46
2021/01/02 00:43:38;;;;;;;20.27;15.10;;;;;;;8.00;64.50;102171.88;1716391;82;21141;-46
2021/01/02 00:46:06;;;;;;;17.92;15.38;;;;;;;7.99;64.50;102179.23;1740392;82;21140;-46
2021/01/02 00:48:37;;;;;;;18.67;15.50;;;;;;;7.98;64.51;102186.55;1738049;82;21254;-46
2021/01/02 00:51:05;;;;;;;18.82;15.45;;;;;;;7.97;64.54;102191.30;1708761;82;21161;-47
2021/01/02 00:54:04;;;;;;;18.48;15.53;;;;;;;7.95;64.68;102189.13;1739338;82;21173;-46
2021/01/02 00:56:53;;;;;;;19.73;15.72;;;;;;;7.94;64.69;102195.14;1736298;82;21109;-46
2021/01/02 00:59:48;;;;;;;16.80;15.00;;;;;;;7.94;64.62;102196.86;1741423;82;21529;-46
2021/01/02 01:02:57;;;;;;;15.70;13.72;;;;;;;7.93;64.45;102199.87;1739809;82;21557;-46
2021/01/02 01:05:26;;;;;;;19.10;15.10;;;;;;;7.90;64.39;102195.95;1689271;84;21176;-46
2021/01/02 01:07:55;;;;;;;19.00;15.83;;;;;;;7.87;64.32;102197.20;1688982;85;21184;-46
2021/01/02 01:10:25;;;;;;;16.07;13.70;;;;;;;7.84;64.38;102197.19;1688896;85;21182;-46
2021/01/02 01:13:06;;;;;;;15.50;13.88;;;;;;;7.83;64.53;102201.91;1688921;85;21188;-45
2021/01/02 01:15:35;;;;;;;15.98;14.28;;;;;;;7.83;64.49;102195.87;1688887;85;21350;-46
2021/01/02 01:18:08;;;;;;;16.97;14.87;;;;;;;7.83;64.35;102203.20;1688932;85;21196;-46
2021/01/02 01:20:37;;;;;;;15.95;14.23;;;;;;;7.83;64.20;102195.42;1685827;85;21179;-46
2021/01/02 01:23:37;;;;;;;18.17;15.03;;;;;;;7.81;64.03;102204.91;1688948;85;21168;-46
2021/01/02 01:26:40;;;;;;;18.67;15.00;;;;;;;7.78;64.12;102204.00;1688853;85;21176;-46
2021/01/02 01:29:27;;;;;;;17.35;13.53;;;;;;;7.79;64.28;102205.31;1812057;79;23071;-46
2021/01/02 01:31:58;;;;;;;17.52;15.03;;;;;;;7.75;64.28;102206.58;1774644;80;21148;-46
2021/01/02 01:34:27;;;;;;;17.82;14.90;;;;;;;7.72;64.32;102202.22;1727093;83;21187;-46
2021/01/02 01:36:55;;;;;;;18.05;15.93;;;;;;;7.73;64.22;102209.13;1729699;83;21644;-46
2021/01/02 01:39:24;;;;;;;18.57;16.20;;;;;;;7.72;64.13;102206.52;1725392;83;21553;-46
2021/01/02 01:41:56;;;;;;;19.23;14.85;;;;;;;7.70;64.08;102210.39;1725368;83;21188;-45
2021/01/02 01:44:43;;;;;;;;;;;;;;;7.66;64.24;102215.09;1748115;81;21125;-46
2021/01/02 01:47:27;;;;;;;17.48;14.87;;;;;;;7.66;64.28;102214.22;1745510;81;20133;-46
2021/01/02 01:50:03;;;;;;;16.32;14.50;;;;;;;7.64;64.21;102221.97;1725170;83;21157;-46
2021/01/02 01:52:52;;;;;;;19.42;15.63;;;;;;;7.62;64.21;102230.15;1701638;83;21125;-46
2021/01/02 01:55:29;;;;;;;19.25;15.80;;;;;;;7.59;64.13;102233.10;1701063;83;21197;-46
2021/01/02 01:58:03;;;;;;;18.92;15.13;;;;;;;7.58;64.19;102241.32;1712440;83;21195;-46
2021/01/02 02:00:46;;;;;;;15.23;13.38;;;;;;;7.59;64.31;102240.45;1771546;79;23557;-46
2021/01/02 02:03:27;;;;;;;17.35;15.05;;;;;;;7.52;64.49;102246.83;1683369;83;21235;-46
2021/01/02 02:06:02;;;;;;;17.70;15.45;;;;;;;7.50;64.41;102251.97;1682566;84;21199;-46
2021/01/02 02:08:42;;;;;;;26.37;17.57;;;;;;;7.49;64.45;102255.42;1679274;84;21219;-47
2021/01/02 02:11:34;;;;;;;17.62;15.83;;;;;;;7.51;64.50;102255.44;1794800;79;28326;-46
2021/01/02 02:14:15;;;;;;;16.40;14.70;;;;;;;7.55;64.48;102263.28;1777475;80;21282;-46
2021/01/02 02:16:47;;;;;;;22.87;14.70;;;;;;;7.59;64.27;102261.17;1780034;80;21147;-46
2021/01/02 02:19:45;;;;;;;19.15;15.25;;;;;;;7.59;64.24;102259.88;1709404;83;21189;-46
2021/01/02 02:22:25;;;;;;;19.05;15.10;;;;;;;7.62;64.17;102259.94;1810824;79;23088;-46
2021/01/02 02:24:55;;;;;;;17.17;15.20;;;;;;;7.55;64.20;102267.16;1774773;80;21156;-46
2021/01/02 02:27:27;;;;;;;15.85;14.03;;;;;;;7.54;64.29;102271.04;1727181;83;21150;-46
2021/01/02 02:30:17;;;;;;;15.98;14.30;;;;;;;7.53;64.35;102275.34;1729871;83;22393;-46
2021/01/02 02:32:47;;;;;;;17.95;14.60;;;;;;;7.54;64.36;102282.28;1693830;83;21162;-46
2021/01/02 02:35:20;;;;;;;17.67;14.68;;;;;;;7.53;64.33;102286.99;1719534;83;21156;-47
2021/01/02 02:37:51;;;;;;;18.00;15.28;;;;;;;7.53;64.37;102292.59;1745488;81;21129;-47
2021/01/02 02:40:21;;;;;;;17.77;15.58;;;;;;;7.51;64.35;102289.11;1743210;81;21213;-47
2021/01/02 02:43:01;;;;;;;16.57;13.60;;;;;;;7.49;64.36;102281.32;1744457;81;21160;-46
2021/01/02 02:45:31;;;;;;;19.52;14.47;;;;;;;7.49;64.44;102289.09;1725662;83;21218;-46
2021/01/02 02:48:03;;;;;;;21.02;14.98;;;;;;;7.49;64.51;102292.09;1603925;89;21806;-46
2021/01/02 02:50:32;;;;;;;19.27;15.45;;;;;;;7.48;64.53;102289.92;1630458;87;21196;-46
2021/01/02 02:53:10;;;;;;;20.12;15.05;;;;;;;7.49;64.50;102299.87;1632240;87;21183;-46
2021/01/02 02:55:39;;;;;;;20.90;15.93;;;;;;;7.46;64.49;102292.91;1601770;89;21210;-46
2021/01/02 02:58:07;;;;;;;20.02;14.78;;;;;;;7.44;64.57;102303.67;1630686;87;21187;-46
2021/01/02 03:00:37;;;;;;;19.67;14.55;;;;;;;7.44;64.66;102308.02;1634500;87;21176;-46
2021/01/02 03:03:10;;;;;;;17.77;15.15;;;;;;;7.40;64.75;102304.48;1632567;87;21225;-46
2021/01/02 03:05:40;;;;;;;16.55;14.47;;;;;;;7.44;64.67;102310.16;1633438;87;21187;-46
2021/01/02 03:08:08;;;;;;;20.60;15.43;;;;;;;7.44;64.65;102308.86;1630137;87;21258;-46
2021/01/02 03:10:36;;;;;;;19.40;15.32;;;;;;;7.43;64.72;102311.02;1627706;87;21201;-46
2021/01/02 03:13:05;;;;;;;17.67;14.10;;;;;;;7.37;65.19;102312.22;1629987;87;21163;-46
2021/01/02 03:15:38;;;;;;;19.95;15.08;;;;;;;7.30;65.64;102306.06;1629501;87;21226;-46
2021/01/02 03:18:10;;;;;;;23.85;16.80;;;;;;;7.26;65.81;102304.69;1625075;87;21749;-46
2021/01/02 03:20:38;;;;;;;19.40;15.80;;;;;;;7.23;65.98;102308.53;1630755;87;21201;-46
2021/01/02 03:23:07;;;;;;;20.85;16.40;;;;;;;7.26;65.96;102305.98;1630468;87;21229;-46
2021/01/02 03:25:36;;;;;;;18.95;15.95;;;;;;;7.25;66.25;102304.25;1634865;87;21217;-46
2021/01/02 03:28:05;;;;;;;18.27;14.93;;;;;;;7.26;66.63;102311.16;1628797;87;21614;-46
2021/01/02 03:30:33;;;;;;;22.60;16.00;;;;;;;7.31;66.89;102314.70;1637932;87;21154;-46
2021/01/02 03:33:03;;;;;;;19.87;15.75;;;;;;;7.34;67.03;102318.63;1625507;87;21178;-46
2021/01/02 03:35:32;;;;;;;20.95;16.80;;;;;;;7.39;66.91;102318.29;1630785;87;21265;-46
2021/01/02 03:38:00;;;;;;;20.25;15.98;;;;;;;7.41;66.48;102312.71;1628943;87;21237;-46
2021/01/02 03:40:29;;;;;;;19.10;16.30;;;;;;;7.44;66.14;102315.33;1624408;87;21205;-46
2021/01/02 03:42:57;;;;;;;18.30;14.83;;;;;;;7.45;66.12;102320.98;1632791;87;21674;-46
2021/01/02 03:45:27;;;;;;;17.80;15.30;;;;;;;7.45;66.32;102320.98;1695251;84;21232;-46
2021/01/02 03:47:55;;;;;;;20.08;15.13;;;;;;;7.43;66.42;102321.37;1762181;80;21161;-46
2021/01/02 03:50:24;;;;;;;17.67;14.98;;;;;;;7.43;66.64;102320.50;1778705;80;21310;-46
2021/01/02 03:52:53;;;;;;;21.23;15.53;;;;;;;7.40;66.67;102327.37;1769781;80;21160;-46
2021/01/02 03:55:21;;;;;;;18.10;15.10;;;;;;;7.39;66.79;102328.65;1711114;84;21140;-46
2021/01/02 03:57:50;;;;;;;18.15;15.18;;;;;;;7.40;67.12;102328.66;1775446;80;21305;-46
2021/01/02 04:00:20;;;;;;;20.15;15.20;;;;;;;7.42;67.29;102335.60;1780237;80;21616;-46
2021/01/02 04:02:49;;;;;;;22.93;15.75;;;;;;;7.43;67.59;102336.91;1772164;80;21137;-46
2021/01/02 04:05:18;;;;;;;19.80;15.40;;;;;;;7.47;67.74;102336.53;1777391;80;21322;-46
2021/01/02 04:07:46;;;;;;;18.57;14.78;;;;;;;7.48;67.92;102338.28;1711336;84;21163;-46
2021/01/02 04:10:14;;;;;;;18.25;14.45;;;;;;;7.06;69.57;102347.48;1777761;80;21205;-47
2021/01/02 04:12:42;;;;;;;19.42;15.23;;;;;;;6.95;70.36;102348.59;1767645;80;21220;-46
2021/01/02 04:15:11;;;;;;;19.07;15.28;;;;;;;6.95;70.83;102352.88;1773562;80;21144;-46
2021/01/02 04:17:43;;;;;;;18.25;14.10;;;;;;;7.01;70.95;102355.58;1779025;80;21580;-46
2021/01/02 04:20:12;;;;;;;18.05;14.45;;;;;;;7.02;71.30;102365.10;1775586;80;21169;-46
2021/01/02 04:22:40;;;;;;;21.10;16.57;;;;;;;7.03;71.50;102364.24;1777825;80;21145;-46
2021/01/02 04:25:10;;;;;;;22.52;16.35;;;;;;;7.49;70.25;102369.80;1716755;83;21124;-46
2021/01/02 04:27:38;;;;;;;18.55;14.73;;;;;;;7.60;69.79;102369.15;1771635;80;21168;-46
2021/01/02 04:30:07;;;;;;;19.50;15.25;;;;;;;7.66;69.74;102375.72;1716400;83;21301;-46
2021/01/02 04:32:37;;;;;;;19.57;15.20;;;;;;;7.35;70.91;102372.17;1779005;80;21523;-46
2021/01/02 04:35:08;;;;;;;22.15;16.05;;;;;;;7.24;71.52;102374.98;1772683;80;21109;-47
2021/01/02 04:37:36;;;;;;;19.02;14.90;;;;;;;7.23;71.74;102379.73;1786763;80;21185;-46
2021/01/02 04:40:06;;;;;;;19.35;15.15;;;;;;;7.26;71.88;102378.47;1717529;83;21179;-46
2021/01/02 04:42:34;;;;;;;17.42;14.15;;;;;;;7.26;71.97;102387.53;1780002;80;21156;-46
2021/01/02 04:45:05;;;;;;;17.60;14.63;;;;;;;7.29;72.01;102388.45;1769720;80;21152;-46
2021/01/02 04:47:33;;;;;;;19.35;15.18;;;;;;;7.34;72.00;102392.42;1772094;80;21576;-46
2021/01/02 04:50:01;;;;;;;22.40;15.68;;;;;;;7.41;71.89;102394.28;1778243;80;21144;-46
2021/01/02 04:52:30;;;;;;;17.85;14.78;;;;;;;7.78;70.63;102400.52;1785120;80;21192;-46
2021/01/02 04:54:58;;;;;;;17.45;14.65;;;;;;;7.84;70.66;102403.20;1779575;80;21176;-46
2021/01/02 04:57:27;;;;;;;19.57;15.58;;;;;;;7.89;70.44;102404.58;1779627;80;21148;-46
2021/01/02 04:59:55;;;;;;;19.92;15.65;;;;;;;7.59;71.27;102408.83;1739461;80;21313;-46
2021/01/02 05:02:24;;;;;;;20.95;16.17;;;;;;;7.75;71.02;102409.53;1716991;83;21159;-47
2021/01/02 05:04:53;;;;;;;17.20;14.15;;;;;;;8.01;70.10;102423.78;1765678;80;21152;-47
2021/01/02 05:07:29;;;;;;;19.35;15.08;;;;;;;8.09;69.30;102427.36;1773784;80;21156;-46
2021/01/02 05:09:57;;;;;;;19.60;15.08;;;;;;;8.14;68.71;102433.47;1777840;80;21140;-46
2021/01/02 05:12:29;;;;;;;19.82;15.28;;;;;;;8.18;68.30;102423.59;1778551;80;21121;-46
2021/01/02 05:15:09;;;;;;;18.27;15.38;;;;;;;8.20;67.95;102421.89;1718526;83;21180;-46
2021/01/02 05:17:43;;;;;;;19.20;15.75;;;;;;;8.26;67.65;102423.75;1771144;79;23119;-46
2021/01/02 05:20:15;;;;;;;19.37;15.55;;;;;;;8.18;67.50;102432.66;1734531;82;21274;-46
2021/01/02 05:22:44;;;;;;;17.17;13.85;;;;;;;8.17;67.39;102438.72;1738190;82;21168;-47
2021/01/02 05:25:21;;;;;;;18.05;14.58;;;;;;;8.19;66.93;102446.51;1737820;82;21298;-46
2021/01/02 05:27:51;;;;;;;20.45;15.60;;;;;;;8.17;66.33;102450.38;1699176;82;21144;-46
2021/01/02 05:30:26;;;;;;;19.35;15.03;;;;;;;8.14;66.14;102458.09;1706529;83;21196;-46
2021/01/02 05:33:03;;;;;;;22.58;15.53;;;;;;;8.12;66.02;102461.09;1699179;83;21654;-46
2021/01/02 05:35:42;;;;;;;22.35;14.98;;;;;;;8.10;66.10;102460.62;1699056;83;21164;-46
2021/01/02 05:38:24;;;;;;;19.25;14.83;;;;;;;8.11;65.91;102452.89;1770255;79;23094;-46
2021/01/02 05:40:56;;;;;;;21.37;15.70;;;;;;;8.06;65.89;102466.19;1739642;82;21617;-46
2021/01/02 05:43:28;;;;;;;21.65;16.05;;;;;;;8.04;65.67;102467.89;1687150;84;21876;-46
2021/01/02 05:46:02;;;;;;;21.00;15.78;;;;;;;8.05;65.56;102472.23;1771547;79;23088;-46
2021/01/02 05:48:31;;;;;;;20.15;15.98;;;;;;;7.98;65.41;102475.56;1738108;82;21290;-46
2021/01/02 05:51:00;;;;;;;24.87;17.65;;;;;;;7.96;65.16;102482.86;1659506;82;21246;-47
2021/01/02 05:53:33;;;;;;;29.50;19.15;;;;;;;7.91;64.91;102481.48;1736503;82;21144;-46
2021/01/02 05:56:10;;;;;;;24.85;17.10;;;;;;;7.88;64.83;102485.34;1741434;81;21572;-46
2021/01/02 05:58:41;;;;;;;24.20;18.32;;;;;;;7.85;64.70;102486.56;1741205;82;21128;-46
2021/01/02 06:01:15;;;;;;;28.45;18.07;;;;;;;7.76;64.74;102489.02;1735687;81;21199;-46
2021/01/02 06:03:45;;;;;;;22.35;17.95;;;;;;;7.75;64.82;102495.03;1739685;82;21199;-46
2021/01/02 06:06:17;;;;;;;25.37;17.20;;;;;;;7.71;65.10;102501.02;1740959;82;21706;-47
2021/01/02 06:08:51;;;;;;;24.47;16.27;;;;;;;7.70;65.27;102504.47;1740983;82;21152;-46
2021/01/02 06:11:22;;;;;;;22.40;16.40;;;;;;;7.72;65.07;102514.44;1740814;82;21152;-46
2021/01/02 06:13:52;;;;;;;23.60;16.77;;;;;;;7.70;65.01;102517.42;1739416;82;21124;-46
2021/01/02 06:16:21;;;;;;;28.20;18.37;;;;;;;7.69;64.91;102518.66;1737715;82;21187;-46
2021/01/02 06:18:50;;;;;;;27.20;19.12;;;;;;;7.68;64.75;102515.64;1737773;82;21730;-46
2021/01/02 06:21:19;;;;;;;25.62;17.27;;;;;;;7.69;64.85;102522.14;1739135;82;21194;-46
2021/01/02 06:23:48;;;;;;;23.65;16.82;;;;;;;7.67;64.99;102525.13;1740605;82;21694;-46
2021/01/02 06:26:16;;;;;;;29.32;17.73;;;;;;;7.64;65.10;102527.67;1738997;82;21171;-47
2021/01/02 06:28:45;;;;;;;26.85;18.48;;;;;;;7.65;65.15;102530.70;1739191;82;21172;-46
2021/01/02 06:31:16;;;;;;;27.30;18.70;;;;;;;7.65;65.15;102532.41;1743700;82;21151;-46
2021/01/02 06:33:50;;;;;;;25.23;19.90;;;;;;;7.70;65.15;102535.56;1799876;79;28787;-46
2021/01/02 06:36:35;;;;;;;24.52;18.62;;;;;;;7.71;65.11;102544.18;1811272;78;21576;-46
2021/01/02 06:39:26;;;;;;;28.75;18.48;;;;;;;7.76;65.00;102542.14;1790416;80;21176;-46
2021/01/02 06:41:56;;;;;;;25.77;19.25;;;;;;;7.75;65.03;102544.27;1744695;81;21596;-46
2021/01/02 06:44:43;;;;;;;26.45;20.08;;;;;;;7.76;65.50;102552.52;1761672;81;21112;-46
2021/01/02 06:47:19;;;;;;;20.70;16.87;;;;;;;7.79;66.00;102551.25;1759455;81;21151;-46
2021/01/02 06:49:48;;;;;;;24.35;17.95;;;;;;;7.85;66.34;102561.73;1763380;81;21168;-46
2021/01/02 06:52:32;;;;;;;24.35;19.02;;;;;;;7.88;66.71;102560.50;1759431;81;21189;-46
2021/01/02 06:55:25;;;;;;;23.85;18.62;;;;;;;7.94;66.91;102561.91;1763221;81;21128;-46
2021/01/02 06:58:15;;;;;;;26.90;19.32;;;;;;;8.02;66.98;102569.80;1663292;85;21732;-45
2021/01/02 07:00:44;;;;;;;23.83;18.50;;;;;;;8.12;67.21;102569.11;1656754;85;21782;-45
2021/01/02 07:03:44;;;;;;;24.90;18.40;;;;;;;8.21;67.39;102573.17;1664854;85;21679;-45
2021/01/02 07:06:23;;;;;;;25.00;19.10;;;;;;;8.36;67.50;102575.17;1771474;79;23102;-46
2021/01/02 07:09:09;;;;;;;23.65;19.20;;;;;;;8.40;67.46;102582.16;1738051;81;21157;-47
2021/01/02 07:11:43;;;;;;;;;;;;;;;8.47;67.45;102585.31;1736504;82;21148;-47
2021/01/02 07:14:18;;;;;;;24.27;18.40;;;;;;;8.54;67.43;102584.54;1738074;81;20140;-46
2021/01/02 07:16:54;;;;;;;24.10;18.85;;;;;;;8.60;67.55;102593.72;1737898;82;21164;-46
2021/01/02 07:19:36;;;;;;;24.52;20.25;;;;;;;8.68;67.51;102592.11;1738028;82;21141;-46
2021/01/02 07:22:14;;;;;;;25.08;18.92;;;;;;;8.75;67.42;102590.06;1740189;81;21537;-46
2021/01/02 07:27:39;;;;;;;24.43;19.85;;;;;;;8.94;67.42;102589.48;1771532;79;23101;-46
2021/01/02 07:30:10;;;;;;;23.67;18.90;;;;;;;8.90;67.66;102591.14;1733826;82;21188;-46
2021/01/02 07:32:41;;;;;;;27.57;20.27;;;;;;;9.00;67.43;102588.27;1738117;82;21171;-46
2021/01/02 07:35:14;;;;;;;37.88;28.77;;;;;;;8.66;68.51;102593.80;1738831;82;21156;-46
2021/01/02 07:37:47;;;;;;;31.27;23.32;;;;;;;9.01;67.73;102588.70;1743843;82;21584;-47
2021/01/02 07:40:16;;;;;;;23.73;20.37;;;;;;;9.11;67.69;102591.87;1739593;82;21156;-46
2021/01/02 07:42:55;;;;;;;23.52;19.32;;;;;;;9.17;67.77;102593.25;1740935;82;21172;-47
2021/01/02 07:45:25;;;;;;;23.98;19.37;;;;;;;9.24;67.81;102596.80;1735348;82;21659;-46
2021/01/02 07:47:55;;;;;;;23.38;19.30;;;;;;;9.30;67.84;102606.84;1742982;82;21113;-47
2021/01/02 07:50:25;;;;;;;24.35;19.35;;;;;;;9.35;67.75;102613.41;1731891;82;21160;-46
2021/01/02 07:52:58;;;;;;;23.60;18.73;;;;;;;9.38;67.79;102609.11;1731922;82;21184;-46
2021/01/02 07:55:31;;;;;;;22.87;18.77;;;;;;;9.45;67.88;102610.95;1739334;82;21184;-47
2021/01/02 07:58:00;;;;;;;22.93;18.87;;;;;;;9.50;67.70;102611.86;1734393;82;21580;-46
2021/01/02 08:00:29;;;;;;;21.25;16.93;;;;;;;9.54;67.61;102614.94;1741424;82;21160;-46
2021/01/02 08:03:05;;;;;;;21.73;18.10;;;;;;;9.57;67.69;102618.89;1740974;82;21160;-47
2021/01/02 08:05:33;;;;;;;23.15;18.02;;;;;;;9.62;67.61;102612.45;1740173;82;21144;-47
2021/01/02 08:08:02;;;;;;;21.02;16.82;;;;;;;9.67;67.71;102619.44;1736620;82;21136;-46
2021/01/02 08:10:31;;;;;;;23.75;19.62;;;;;;;9.75;67.66;102621.69;1741631;82;21282;-47
2021/01/02 08:13:02;;;;;;;20.85;16.87;;;;;;;9.80;67.47;102617.43;1732075;82;21337;-47
2021/01/02 08:15:35;;;;;;;23.27;18.30;;;;;;;9.84;67.36;102620.50;1744744;82;21141;-47
2021/01/02 08:18:06;;;;;;;22.02;17.92;;;;;;;9.87;67.14;102627.89;1732105;82;21178;-47
2021/01/02 08:20:34;;;;;;;19.50;17.00;;;;;;;9.91;67.14;102627.07;1742604;82;21145;-46
2021/01/02 08:23:11;;;;;;;22.22;18.35;;;;;;;9.91;67.15;102634.88;1736465;82;21148;-47
2021/01/02 08:25:39;;;;;;;22.42;17.52;;;;;;;9.92;67.02;102631.40;1684993;83;21663;-46
2021/01/02 08:28:08;;;;;;;22.55;17.10;;;;;;;9.94;66.95;102633.16;1666387;85;21771;-46
2021/01/02 08:30:37;;;;;;;20.62;17.15;;;;;;;9.98;66.79;102634.06;1666080;85;21616;-46
2021/01/02 08:33:06;;;;;;;24.77;18.35;;;;;;;10.01;66.74;102645.81;1667841;85;21389;-46
2021/01/02 08:35:38;;;;;;;22.75;17.75;;;;;;;10.03;66.63;102645.40;1668918;85;21290;-47
2021/01/02 08:38:11;;;;;;;21.95;18.05;;;;;;;10.06;66.76;102645.41;1668063;85;21275;-47
2021/01/02 08:43:26;;;;;;;23.73;18.27;;;;;;;10.17;66.66;102641.23;1809979;79;22978;-47
2021/01/02 08:46:01;;;;;;;;;;;;;;;10.17;66.50;102647.73;1779439;80;21128;-47
2021/01/02 08:48:29;;;;;;;21.73;18.27;;;;;;;10.21;66.55;102649.52;1778294;80;20209;-47
2021/01/02 08:50:58;;;;;;;21.05;16.35;;;;;;;10.27;66.47;102650.87;1779258;80;21159;-47
2021/01/02 08:53:33;;;;;;;18.80;16.77;;;;;;;10.33;66.40;102648.33;1779965;80;21207;-47
2021/01/02 08:56:24;;;;;;;21.75;17.75;;;;;;;10.39;66.22;102648.38;1776369;80;21168;-47
2021/01/02 08:58:52;;;;;;;21.52;16.60;;;;;;;10.47;65.98;102651.92;1778283;80;21125;-46
2021/01/02 09:01:22;;;;;;;21.02;16.55;;;;;;;10.50;65.88;102651.54;1783911;80;21148;-46
2021/01/02 09:03:50;;;;;;;21.10;17.10;;;;;;;10.53;65.76;102654.15;1774259;80;21146;-47
2021/01/02 09:06:25;;;;;;;21.82;16.57;;;;;;;10.56;65.86;102659.81;1776345;80;21147;-47
2021/01/02 09:09:02;;;;;;;21.55;17.27;;;;;;;10.58;66.00;102658.09;1777780;80;21278;-47
2021/01/02 09:11:52;;;;;;;19.95;16.42;;;;;;;10.64;66.12;102656.84;1776315;80;21572;-47
2021/01/02 09:14:21;;;;;;;20.68;16.20;;;;;;;10.69;66.15;102659.07;1739349;82;21173;-47
2021/01/02 09:17:01;;;;;;;17.65;14.85;;;;;;;10.76;65.98;102658.23;1741113;82;22333;-47
2021/01/02 09:19:36;;;;;;;20.68;14.95;;;;;;;10.86;65.83;102660.05;1771372;79;22848;-47
2021/01/02 09:22:18;;;;;;;18.62;14.23;;;;;;;10.86;65.70;102647.02;1740596;82;21287;-47
2021/01/02 09:24:47;;;;;;;17.90;14.60;;;;;;;10.93;65.65;102651.43;1735944;82;21746;-48
2021/01/02 09:27:15;;;;;;;16.42;13.13;;;;;;;11.01;65.27;102651.47;1741601;82;21148;-47
2021/01/02 09:29:44;;;;;;;15.28;12.50;;;;;;;11.07;64.88;102648.91;1739422;82;21133;-47
2021/01/02 09:32:12;;;;;;;14.90;11.93;;;;;;;11.11;64.47;102653.27;1740520;82;21616;-47
2021/01/02 09:34:41;;;;;;;14.15;11.60;;;;;;;11.14;63.94;102649.39;1735185;82;21537;-47
2021/01/02 09:37:09;;;;;;;12.20;10.68;;;;;;;11.27;63.37;102652.52;1743898;82;21144;-47
2021/01/02 09:39:37;;;;;;;13.75;11.35;;;;;;;11.34;62.83;102652.55;1732005;82;21683;-47
2021/01/02 09:42:06;;;;;;;14.18;11.20;;;;;;;11.37;62.73;102653.86;1743925;82;21592;-47
2021/01/02 09:44:35;;;;;;;13.85;11.75;;;;;;;11.38;62.68;102647.80;1735224;82;21290;-47
2021/01/02 09:47:04;;;;;;;13.55;11.12;;;;;;;11.39;62.64;102648.67;1738733;82;21193;-47
2021/01/02 09:49:32;;;;;;;12.00;10.15;;;;;;;11.41;62.47;102643.91;1739852;81;21157;-47
2021/01/02 09:52:01;;;;;;;11.88;9.98;;;;;;;11.21;62.89;102644.22;1738418;82;21117;-47
2021/01/02 09:54:29;;;;;;;11.05;9.80;;;;;;;11.17;63.18;102643.76;1734289;82;21291;-47
2021/01/02 09:56:59;;;;;;;12.98;10.60;;;;;;;11.18;63.24;102639.43;1740275;82;21620;-47
2021/01/02 09:59:28;;;;;;;10.68;9.53;;;;;;;11.19;63.44;102635.52;1740428;82;21184;-47
2021/01/02 10:01:56;;;;;;;10.70;9.10;;;;;;;11.23;63.28;102639.89;1741414;81;21172;-47
2021/01/02 10:04:25;;;;;;;9.50;8.43;;;;;;;11.27;63.20;102640.34;1732505;82;21152;-47
2021/01/02 10:06:53;;;;;;;11.38;9.60;;;;;;;11.29;63.28;102641.22;1737644;82;21600;-47
2021/01/02 10:09:21;;;;;;;11.20;9.43;;;;;;;11.32;63.26;102638.64;1743349;82;21157;-47
2021/01/02 10:11:51;;;;;;;9.98;8.23;;;;;;;11.38;63.38;102643.00;1735278;82;21164;-47
2021/01/02 10:14:20;;;;;;;9.28;8.38;;;;;;;11.43;63.18;102649.12;1734440;82;21703;-46
2021/01/02 10:16:48;;;;;;;10.00;8.38;;;;;;;11.48;62.84;102650.87;1734998;82;21181;-47
2021/01/02 10:19:17;;;;;;;9.68;8.18;;;;;;;11.53;62.67;102643.51;1724498;82;21173;-47
2021/01/02 10:21:48;;;;;;;9.48;8.30;;;;;;;11.54;62.62;102643.50;1721710;82;21201;-47
2021/01/02 10:24:17;;;;;;;8.85;7.95;;;;;;;11.56;62.56;102629.20;1727896;82;21157;-46
2021/01/02 10:26:45;;;;;;;11.08;8.35;;;;;;;11.61;62.63;102627.46;1724921;81;21177;-47
2021/01/02 10:29:14;;;;;;;10.55;8.55;;;;;;;11.65;62.58;102631.81;1724017;82;21184;-47
2021/01/02 10:31:43;;;;;;;9.20;8.08;;;;;;;11.73;62.24;102627.53;1718680;82;21126;-47
2021/01/02 10:34:11;;;;;;;8.33;7.40;;;;;;;11.78;61.87;102621.48;1727617;82;21149;-47
2021/01/02 10:36:40;;;;;;;7.75;6.95;;;;;;;11.81;61.63;102618.02;1721195;82;21117;-47
2021/01/02 10:39:08;;;;;;;8.03;7.15;;;;;;;11.85;61.47;102618.47;1726321;82;21161;-47
2021/01/02 10:41:36;;;;;;;9.25;7.10;;;;;;;11.88;61.26;102623.67;1725708;82;21149;-47
2021/01/02 10:44:05;;;;;;;11.08;7.47;;;;;;;11.91;60.90;102622.39;1721481;82;21149;-47
2021/01/02 10:46:35;;;;;;;9.75;7.47;;;;;;;11.91;60.87;102627.61;1728585;82;21145;-47
2021/01/02 10:49:03;;;;;;;9.90;7.97;;;;;;;11.93;60.90;102628.48;1721893;82;21145;-47
2021/01/02 10:51:31;;;;;;;7.87;7.08;;;;;;;11.93;60.78;102631.09;1725193;82;21318;-47
2021/01/02 10:54:00;;;;;;;10.10;7.17;;;;;;;11.94;60.81;102632.81;1724527;82;21165;-47
2021/01/02 10:56:28;;;;;;;8.88;7.85;;;;;;;11.94;60.92;102636.30;1725284;82;21189;-47
2021/01/02 10:58:56;;;;;;;8.70;7.72;;;;;;;11.93;61.03;102637.61;1723491;82;21193;-47
2021/01/02 11:01:25;;;;;;;9.98;7.28;;;;;;;11.94;60.97;102631.52;1736817;82;21318;-46
2021/01/02 11:03:54;;;;;;;8.93;7.30;;;;;;;11.92;60.85;102630.64;1724890;82;21185;-47
2021/01/02 11:06:23;;;;;;;10.03;7.80;;;;;;;11.92;60.57;102629.34;1724169;82;21153;-47
2021/01/02 11:08:51;;;;;;;8.63;7.75;;;;;;;11.89;60.67;102625.44;1723439;82;21165;-48
2021/01/02 11:11:21;;;;;;;10.25;8.23;;;;;;;11.86;60.80;102618.89;1722848;82;21570;-47
2021/01/02 11:13:49;;;;;;;9.00;8.10;;;;;;;11.81;60.98;102616.27;1728811;82;21629;-48
2021/01/02 11:16:17;;;;;;;8.35;7.22;;;;;;;11.79;61.34;102614.08;1718419;82;21311;-47
2021/01/02 11:18:46;;;;;;;8.65;7.75;;;;;;;11.80;61.40;102613.66;1731036;82;21557;-47
2021/01/02 11:21:15;;;;;;;8.40;7.53;;;;;;;11.83;61.23;102619.74;1733573;82;21151;-47
2021/01/02 11:23:43;;;;;;;9.20;8.05;;;;;;;11.80;61.31;102618.88;1740303;82;21140;-47
2021/01/02 11:26:12;;;;;;;9.30;8.30;;;;;;;11.79;61.40;102615.81;1738798;82;21299;-47
2021/01/02 11:28:42;;;;;;;14.13;8.25;;;;;;;11.78;61.31;102614.09;1735737;82;21176;-47
2021/01/02 11:31:10;;;;;;;9.45;7.78;;;;;;;11.75;61.44;102605.81;1742252;82;21168;-47
2021/01/02 11:33:38;;;;;;;8.55;7.53;;;;;;;11.74;61.61;102607.13;1734870;82;21290;-47
2021/01/02 11:36:08;;;;;;;9.73;8.58;;;;;;;11.74;61.74;102608.42;1740160;82;21191;-46
2021/01/02 11:38:37;;;;;;;8.53;7.62;;;;;;;11.64;62.21;102604.02;1730539;82;21742;-47
2021/01/02 11:41:05;;;;;;;9.18;7.60;;;;;;;11.63;62.10;102606.17;1738955;82;21185;-47
2021/01/02 11:43:35;;;;;;;11.12;7.90;;;;;;;11.66;62.10;102607.50;1743689;82;21180;-47
2021/01/02 11:46:03;;;;;;;8.68;7.50;;;;;;;11.70;62.14;102613.20;1740561;82;21156;-47
2021/01/02 11:48:32;;;;;;;8.63;7.58;;;;;;;11.69;62.39;102611.02;1734912;82;21168;-47
2021/01/02 11:51:01;;;;;;;8.95;8.05;;;;;;;11.37;63.40;102619.13;1744248;82;21188;-47